< < Back
Terminal Aerodrome Forecast


Current Version              Previous Versions:   1  2  3  4  5  6  7  8  9  

Terminal Aerodrome Forecast

353
FTUS42 KGSP 171500 AAA
TAFCLT
TAF AMD
KCLT 171543Z 1716/1812 05011KT P6SM BKN250
     FM180300 07008KT P6SM FEW040 BKN250
     FM180900 04009KT P6SM BKN040=

Latest METAR

915
SAUS70 KWBC 171900 RRC
MTRCLT
METAR KCLT 171852Z 07008G14KT 10SM FEW250 16/M03 A3047 RMK AO2 SLP316
T01611028


USA.gov is the U.S. government's official web portal to all federal, state and local government web resources and services.